createdAt,value
2023-03-11T00:02:00.700Z,11.23
2023-03-11T00:07:10.414Z,10.27
2023-03-11T00:12:17.432Z,12.57
2023-03-11T00:17:25.706Z,13.48
2023-03-11T00:22:32.586Z,19.60
2023-03-11T00:27:39.415Z,18.05
2023-03-11T00:32:49.871Z,11.40
2023-03-11T00:37:58.968Z,11.57
2023-03-11T00:43:06.656Z,9.95
2023-03-11T00:48:17.700Z,10.77
2023-03-11T00:53:24.354Z,11.15
2023-03-11T00:58:31.133Z,10.32
2023-03-11T01:03:39.767Z,10.13
2023-03-11T01:08:46.555Z,11.13
2023-03-11T01:13:53.213Z,11.07
2023-03-11T01:19:02.614Z,11.52
2023-03-11T01:24:09.606Z,10.50
2023-03-11T01:29:18.186Z,10.93
2023-03-11T01:34:26.818Z,9.57
2023-03-11T01:39:33.548Z,10.77
2023-03-11T01:44:40.078Z,11.13
2023-03-11T01:49:50.701Z,10.15
2023-03-11T01:54:57.275Z,9.93
2023-03-11T02:00:09.491Z,10.02
2023-03-11T02:05:24.889Z,10.00
2023-03-11T02:10:32.982Z,10.95
2023-03-11T02:15:40.204Z,9.85
2023-03-11T02:20:56.438Z,10.10
2023-03-11T02:26:12.080Z,9.45
2023-03-11T02:31:21.194Z,9.68
2023-03-11T02:41:47.709Z,10.30
2023-03-11T02:46:56.226Z,9.52
2023-03-11T02:52:02.889Z,9.57
2023-03-11T02:57:10.160Z,9.18
2023-03-11T03:02:18.157Z,9.18
2023-03-11T03:07:24.775Z,6.50
2023-03-11T03:12:31.213Z,7.32
2023-03-11T03:17:39.284Z,7.32
2023-03-11T03:22:47.247Z,7.57
2023-03-11T03:27:56.702Z,8.45
2023-03-11T03:33:07.298Z,7.70
2023-03-11T03:38:14.759Z,6.78
2023-03-11T03:43:22.167Z,6.75
2023-03-11T03:48:31.045Z,6.65
2023-03-11T03:53:39.077Z,6.25
2023-03-11T03:58:46.154Z,5.65
2023-03-11T04:03:54.571Z,5.43
2023-03-11T04:09:02.388Z,5.95
2023-03-11T04:14:12.233Z,5.95
2023-03-11T04:19:28.094Z,5.45
2023-03-11T04:24:35.358Z,5.57
2023-03-11T04:29:42.552Z,5.20
2023-03-11T04:34:51.172Z,4.80
2023-03-11T04:39:58.320Z,4.63
2023-03-11T04:45:05.491Z,4.68
2023-03-11T04:50:15.225Z,4.18
2023-03-11T04:55:22.273Z,3.80
2023-03-11T05:00:28.898Z,3.67
2023-03-11T05:05:46.206Z,4.72
2023-03-11T05:10:54.627Z,4.30
2023-03-11T05:16:02.786Z,3.63
2023-03-11T05:21:11.186Z,3.60
2023-03-11T05:26:18.407Z,3.25
2023-03-11T05:31:24.908Z,3.22
2023-03-11T05:36:33.084Z,2.83
2023-03-11T05:41:40.264Z,4.07
2023-03-11T05:46:46.825Z,3.20
2023-03-11T05:51:58.389Z,3.30
2023-03-11T05:57:06.391Z,3.28
2023-03-11T06:02:14.068Z,3.70
2023-03-11T06:07:23.024Z,2.88
2023-03-11T06:12:29.587Z,3.08
2023-03-11T06:17:49.925Z,3.25
2023-03-11T06:22:58.948Z,3.17
2023-03-11T06:28:07.085Z,3.05
2023-03-11T06:33:14.762Z,4.00
2023-03-11T06:38:23.192Z,4.15
2023-03-11T06:43:30.415Z,5.20
2023-03-11T06:48:38.403Z,4.78
2023-03-11T06:53:49.883Z,4.20
2023-03-11T06:58:57.148Z,5.05
2023-03-11T07:04:07.738Z,5.35
2023-03-11T07:09:19.447Z,6.10
2023-03-11T07:14:26.203Z,6.20
2023-03-11T07:19:36.237Z,6.03
2023-03-11T07:24:47.088Z,5.80
2023-03-11T07:29:54.150Z,5.93
2023-03-11T07:35:00.849Z,6.28
2023-03-11T07:40:11.315Z,5.22
2023-03-11T07:45:19.066Z,6.03
2023-03-11T07:50:25.985Z,6.43
2023-03-11T07:55:34.626Z,7.32
2023-03-11T08:05:47.686Z,9.45
2023-03-11T08:10:55.594Z,11.13
2023-03-11T08:16:04.776Z,11.18
2023-03-11T08:21:15.165Z,10.85
2023-03-11T08:26:24.618Z,11.45
2023-03-11T08:36:39.218Z,8.18
2023-03-11T08:41:47.998Z,7.55
2023-03-11T08:46:55.763Z,8.27
2023-03-11T08:52:04.298Z,8.30
2023-03-11T08:57:13.420Z,9.23
2023-03-11T09:02:20.814Z,8.55
2023-03-11T09:07:27.966Z,7.15
2023-03-11T09:12:36.546Z,5.47
2023-03-11T09:17:45.581Z,4.47
2023-03-11T09:22:52.473Z,3.20
2023-03-11T09:28:00.580Z,3.45
2023-03-11T09:33:07.288Z,3.20
2023-03-11T09:38:13.749Z,3.40
2023-03-11T09:43:45.003Z,3.58
2023-03-11T09:49:00.330Z,3.53
2023-03-11T09:54:12.434Z,3.22
2023-03-11T09:59:29.285Z,3.60
2023-03-11T10:04:43.796Z,3.83
2023-03-11T10:09:54.559Z,3.80
2023-03-11T10:15:26.526Z,4.93
2023-03-11T10:20:42.807Z,3.20
2023-03-11T10:26:04.910Z,2.25
2023-03-11T10:31:25.433Z,1.80
2023-03-11T10:36:41.555Z,2.28
2023-03-11T10:41:54.671Z,2.38
2023-03-11T10:47:03.398Z,2.58
2023-03-11T10:52:09.852Z,2.65
2023-03-11T10:57:27.086Z,2.35
2023-03-11T11:02:42.690Z,2.33
2023-03-11T11:07:55.065Z,2.30
2023-03-11T11:13:04.271Z,2.70
2023-03-11T11:18:22.806Z,2.63
2023-03-11T11:23:35.978Z,3.20
2023-03-11T11:28:42.609Z,3.45
2023-03-11T11:33:56.302Z,2.97
2023-03-11T11:39:05.484Z,2.92
2023-03-11T11:44:17.398Z,3.38
2023-03-11T11:49:30.649Z,3.42
2023-03-11T11:54:42.071Z,3.80
2023-03-11T11:59:50.047Z,4.28
2023-03-11T12:05:02.998Z,3.97
2023-03-11T12:10:29.524Z,4.45
2023-03-11T12:15:43.225Z,3.80
2023-03-11T12:20:57.523Z,3.90
2023-03-11T12:26:19.140Z,4.15
2023-03-11T12:31:31.293Z,4.30
2023-03-11T12:36:44.289Z,3.85
2023-03-11T12:42:25.654Z,3.72
2023-03-11T12:47:35.226Z,3.53
2023-03-11T12:52:56.736Z,4.07
2023-03-11T12:58:49.277Z,3.30
2023-03-11T13:04:46.877Z,4.43
2023-03-11T13:10:12.813Z,3.87
2023-03-11T13:15:39.303Z,3.90
2023-03-11T13:21:08.696Z,3.80
2023-03-11T13:26:42.714Z,3.60
2023-03-11T13:32:12.779Z,4.07
2023-03-11T13:37:32.946Z,4.18
2023-03-11T13:42:51.078Z,3.65
2023-03-11T13:48:08.928Z,3.63
2023-03-11T13:53:24.551Z,3.67
2023-03-11T13:58:33.322Z,3.80
2023-03-11T14:03:45.620Z,3.53
2023-03-11T14:08:59.966Z,3.20
2023-03-11T14:14:45.260Z,3.05
2023-03-11T14:20:10.350Z,3.40
2023-03-11T14:25:23.657Z,3.72
2023-03-11T14:30:35.069Z,2.85
2023-03-11T14:35:42.737Z,3.72
2023-03-11T14:40:56.496Z,2.63
2023-03-11T14:46:13.207Z,2.83
2023-03-11T14:51:27.768Z,3.35
2023-03-11T14:56:43.730Z,2.80
2023-03-11T15:01:54.260Z,3.05
2023-03-11T15:07:04.141Z,3.10
2023-03-11T15:12:35.051Z,3.13
2023-03-11T15:17:56.104Z,3.55
2023-03-11T15:23:06.382Z,2.90
2023-03-11T15:28:31.237Z,2.72
2023-03-11T15:33:41.063Z,2.58
2023-03-11T15:39:08.451Z,3.22
2023-03-11T15:44:32.813Z,2.60
2023-03-11T15:49:45.531Z,1.90
2023-03-11T15:54:56.011Z,2.30
2023-03-11T16:00:06.710Z,2.72
2023-03-11T16:05:24.157Z,3.10
2023-03-11T16:10:31.633Z,3.08
2023-03-11T16:15:41.020Z,3.10
2023-03-11T16:20:55.944Z,2.58
2023-03-11T16:26:08.891Z,2.63
2023-03-11T16:31:17.798Z,2.70
2023-03-11T16:36:31.012Z,2.95
2023-03-11T16:41:45.140Z,2.95
2023-03-11T16:46:54.841Z,3.38
2023-03-11T16:52:05.124Z,3.13
2023-03-11T16:57:14.514Z,3.25
2023-03-11T17:02:24.629Z,2.55
2023-03-11T17:07:34.776Z,3.33
2023-03-11T17:12:42.635Z,3.20
2023-03-11T17:17:55.617Z,3.35
2023-03-11T17:23:05.538Z,2.22
2023-03-11T17:28:14.610Z,2.05
2023-03-11T17:33:22.935Z,1.98
2023-03-11T17:38:33.218Z,1.80
2023-03-11T17:43:44.416Z,2.15
2023-03-11T17:48:54.951Z,2.60
2023-03-11T17:54:05.939Z,2.33
2023-03-11T17:59:17.910Z,3.95
2023-03-11T18:04:28.456Z,2.45
2023-03-11T18:09:39.078Z,2.00
2023-03-11T18:14:48.313Z,2.05
2023-03-11T18:19:59.418Z,2.05
2023-03-11T18:25:15.245Z,2.60
2023-03-11T18:30:24.166Z,2.17
2023-03-11T18:40:43.471Z,2.00
2023-03-11T18:45:55.077Z,2.17
2023-03-11T18:51:03.221Z,2.38
2023-03-11T18:56:17.643Z,2.33
2023-03-11T19:01:29.927Z,2.40
2023-03-11T19:06:41.404Z,2.00
2023-03-11T19:11:51.337Z,2.40
2023-03-11T19:16:59.829Z,2.15
2023-03-11T19:22:09.756Z,2.72
2023-03-11T19:27:21.734Z,3.55
2023-03-11T19:32:31.531Z,3.10
2023-03-11T19:37:39.871Z,2.70
2023-03-11T19:42:51.103Z,2.27
2023-03-11T19:48:01.934Z,2.63
2023-03-11T19:53:11.300Z,2.47
2023-03-11T20:03:33.221Z,3.17
2023-03-11T20:08:47.125Z,3.10
2023-03-11T20:14:02.749Z,2.95
2023-03-11T20:19:14.509Z,2.83
2023-03-11T20:24:25.437Z,3.22
2023-03-11T20:29:36.863Z,3.67
2023-03-11T20:34:45.806Z,3.85
2023-03-11T20:39:57.774Z,3.35
2023-03-11T20:45:12.428Z,4.18
2023-03-11T20:50:27.037Z,3.78
2023-03-11T20:55:37.230Z,3.28
2023-03-11T21:01:03.338Z,4.55
2023-03-11T21:06:24.991Z,3.85
2023-03-11T21:11:36.242Z,4.55
2023-03-11T21:16:46.957Z,3.67
2023-03-11T21:21:56.376Z,3.15
2023-03-11T21:27:10.886Z,3.58
2023-03-11T21:32:21.151Z,3.65
2023-03-11T21:37:30.055Z,4.15
2023-03-11T21:47:45.974Z,3.40
2023-03-11T21:52:53.432Z,4.05
2023-03-11T21:58:00.274Z,3.33
2023-03-11T22:03:08.983Z,3.83
2023-03-11T22:13:23.322Z,3.28
2023-03-11T22:18:31.981Z,3.00
2023-03-11T22:23:39.141Z,2.92
2023-03-11T22:28:46.543Z,3.33
2023-03-11T22:33:55.113Z,3.35
2023-03-11T22:39:04.755Z,2.90
2023-03-11T22:44:11.503Z,4.18
2023-03-11T22:49:20.465Z,4.25
2023-03-11T22:59:33.842Z,3.05
2023-03-11T23:04:45.357Z,3.70
2023-03-11T23:09:51.937Z,3.50
2023-03-11T23:14:58.882Z,3.17
2023-03-11T23:20:10.707Z,4.20
2023-03-11T23:25:19.892Z,3.28
2023-03-11T23:30:27.342Z,3.83
2023-03-11T23:35:35.815Z,3.85
2023-03-11T23:40:43.388Z,3.75
2023-03-11T23:45:50.684Z,3.80
2023-03-11T23:50:59.395Z,4.03
2023-03-11T23:56:13.011Z,4.55
